Flight Track Log - Related Links

Times and Time Zones

All times are in EDT time to prevent confusion due to time zone crossing. See the EJA929 flight status page for this flight to view local times or setup timezone preferences in your user account.

Time Position Orientation Groundspeed Altitude Reporting Facility
EDT Latitude Longitude Course Direction KTS km/h meters Rate Location/Type
Mon 17:27:09 42.6617 -83.4631 264° West 168 311 853  Level Cleveland Center
Mon 17:27:25 42.6639 -83.4814 279° West 185 343 1,036 660 Climbing Cleveland Center
Mon 17:28:10 42.7181 -83.4939 350° North 278 515 1,524 619 Climbing Cleveland Center
Mon 17:28:27 42.7372 -83.4756 35° Northeast 295 546 1,676 1,049 Climbing Cleveland Center
Mon 17:29:11 42.7550 -83.3942 73° East 343 636 2,591 1,209 Climbing Cleveland Center
Mon 17:29:29 42.7569 -83.3603 86° East 340 629 2,926 960 Climbing Cleveland Center
Mon 17:30:31 42.6947 -83.3033 146° Southeast 315 583 3,871 752 Climbing Cleveland Center
Mon 17:31:33 42.6033 -83.3181 187° South 333 616 4,481 634 Climbing Cleveland Center
Mon 17:32:35 42.5089 -83.3211 181° South 339 628 5,182 723 Climbing Cleveland Center
Mon 17:33:37 42.4006 -83.3236 181° South 335 621 5,974 693 Climbing Cleveland Center
Mon 17:34:39 42.3017 -83.3256 181° South 347 642 6,614 354 Climbing Cleveland Center
Mon 17:35:41 42.1950 -83.3283 181° South 379 702 6,706 44 Climbing Cleveland Center
Mon 17:36:43 42.0797 -83.3317 181° South 409 758 6,706  Level Cleveland Center
Mon 17:37:45 41.9644 -83.3333 181° South 411 761 6,706  Level Cleveland Center
Mon 17:38:48 41.8417 -83.3361 181° South 413 764 6,706  Level Cleveland Center
Mon 17:39:50 41.7253 -83.3394 181° South 418 774 6,706  Level Cleveland Center
Mon 17:40:52 41.6089 -83.3364 179° South 419 776 6,706  Level Cleveland Center
Mon 17:41:54 41.4736 -83.3617 188° South 414 766 6,706  Level Cleveland Center
Mon 17:42:56 41.3714 -83.4211 204° Southwest 403 747 6,706  Level Cleveland Center
Mon 17:43:58 41.2586 -83.4556 193° South 420 777 6,706 -206 Level Cleveland Center
Mon 17:45:00 41.1394 -83.4278 170° South 435 806 6,279 -546 Descending Cleveland Center
Mon 17:46:02 41.0111 -83.3944 169° South 428 793 5,578 -649 Descending Cleveland Center
Mon 17:47:04 40.8975 -83.3647 169° South 417 772 4,938 -605 Descending Cleveland Center
Mon 17:48:06 40.7858 -83.3378 170° South 410 760 4,328 -590 Descending Cleveland Center
Mon 17:49:08 40.6786 -83.3111 169° South 396 734 3,719 -483 Descending Cleveland Center
Mon 17:50:11 40.5722 -83.2842 169° South 391 724 3,322 -194 Descending Cleveland Center
Mon 17:50:52 40.4950 -83.2261 150° Southeast 389 721 3,383 45 Climbing Indianapolis Center
Mon 17:51:32 40.4536 -83.1694 134° Southeast 392 726 3,383 -120 Level Indianapolis Center
Mon 17:51:53 40.4161 -83.1278 140° Southeast 399 739 3,261 -295 Descending Indianapolis Center
Mon 17:52:34 40.3722 -83.0697 135° Southeast 399 739 3,078 -200 Descending Indianapolis Center
Mon 17:52:48 40.3411 -83.0358 140° Southeast 397 735 3,078 -30 Level Indianapolis Center
Mon 17:53:36 40.2900 -82.9706 136° Southeast 399 739 3,048 -60 Descending Indianapolis Center
Mon 17:54:19 40.2186 -82.8872 138° Southeast 367 679 2,987 -148 Descending Indianapolis Center
Mon 17:54:38 40.1997 -82.8617 134° Southeast 363 673 2,896 -429 Descending Indianapolis Center
Mon 17:55:40 40.1386 -82.7872 137° Southeast 308 570 2,408 -603 Descending Indianapolis Center
Mon 17:56:15 40.0989 -82.7503 145° Southeast 280 518 1,920 -726 Descending Indianapolis Center
Mon 17:56:43 40.0728 -82.7356 157° South 282 523 1,646 -665 Descending Indianapolis Center
Mon 17:57:21 40.0269 -82.7336 178° South 221 409 1,189 -531 Descending Indianapolis Center
Mon 17:57:45 40.0097 -82.7397 195° South 259 480 1,097 -395 Descending Indianapolis Center
Mon 17:57:58 39.9994 -82.7592 235° Southwest 196 364 945 -413 Descending Indianapolis Center
Mon 17:58:47 39.9958 -82.8056 264° West 216 401 671 -390 Descending Indianapolis Center
Mon 17:58:59 39.9972 -82.8272 275° West 173 320 549 -236 Descending Indianapolis Center
Mon 17:59:49 40.0003 -82.8681 276° West 189 349 427 -146 Descending Indianapolis Center
Mon 18:01:00 39.9833 -82.8833 226° Southwest  Level FlightAware Approximate

Login

Don't have an account? Register now (free) for customized features, flight alerts, and more!